This is the latest recevied weather packets stored in our database for station/object OE6PWE-13. If no packets are shown the sender has not sent any weather packets the latest 10 day(s).
| Time | Temp. | Humidity | Pressure | Rain* | Wind** | Luminosity | Snow |
|---|---|---|---|---|---|---|---|
| 1777617914 | 6.67° C | 60% | 1029 hPa | 0 mm | - | - | - |
| 1777617021 | 5.56° C | 66% | 1029 hPa | 0 mm | - | - | - |
| 1777616113 | 4.44° C | 69% | 1030 hPa | 0 mm | - | - | - |
| 1777614313 | 1.11° C | 82% | 1030 hPa | 0 mm | - | - | - |
| 1777613422 | 0° C | 88% | 1030 hPa | 0 mm | - | - | - |
| 1777612513 | -0.56° C | 89% | 1030 hPa | 0 mm | - | - | - |
| 1777611622 | -1.11° C | 90% | 1030 hPa | 0 mm | - | - | - |
| 1777610713 | -1.11° C | 90% | 1030 hPa | 0 mm | - | - | - |
| 1777608913 | -1.67° C | 91% | 1030 hPa | 0 mm | - | - | - |
| 1777608020 | -1.67° C | 90% | 1030 hPa | 0 mm | - | - | - |
| 1777606221 | -1.11° C | 88% | 1030 hPa | 0 mm | - | - | - |
| 1777605314 | -1.11° C | 88% | 1030 hPa | 0 mm | - | - | - |
| 1777604418 | -1.11° C | 88% | 1030 hPa | 0 mm | - | - | - |
| 1777603513 | -1.11° C | 88% | 1030 hPa | 0 mm | - | - | - |
| 1777602620 | -0.56° C | 87% | 1030 hPa | 0 mm | - | - | - |
| 1777601713 | -0.56° C | 86% | 1030 hPa | 0 mm | - | - | - |
| 1777599913 | -0.56° C | 85% | 1030 hPa | 0 mm | - | - | - |
| 1777598113 | 0° C | 84% | 1030 hPa | 0 mm | - | - | - |
| 1777597221 | 0.56° C | 83% | 1030 hPa | 0 mm | - | - | - |
| 1777596313 | 0° C | 84% | 1030 hPa | 0 mm | - | - | - |
| 1777595421 | 0° C | 84% | 1030 hPa | 0 mm | - | - | - |
| 1777594513 | 0° C | 83% | 1030 hPa | 0 mm | - | - | - |
| 1777592714 | 1.11° C | 80% | 1030 hPa | 0 mm | - | - | - |
| 1777591821 | 1.11° C | 79% | 1030 hPa | 0 mm | - | - | - |
| 1777590914 | 1.11° C | 79% | 1030 hPa | 0 mm | - | - | - |
* Rain latest hour (hover to see other rain measurements)
** Current wind speed in m/s (hover to see current wind gust speed)